createdAt,value
2019-03-17T00:00:34.425Z,1.30
2019-03-17T00:01:34.385Z,1.50
2019-03-17T00:02:34.372Z,1.50
2019-03-17T00:03:34.367Z,1.50
2019-03-17T00:04:34.364Z,1.90
2019-03-17T00:05:34.342Z,1.60
2019-03-17T00:06:34.349Z,1.80
2019-03-17T00:07:44.448Z,1.40
2019-03-17T00:08:34.343Z,1.80
2019-03-17T00:09:34.369Z,1.80
2019-03-17T00:10:34.332Z,1.80
2019-03-17T00:11:34.479Z,1.60
2019-03-17T00:12:34.329Z,1.50
2019-03-17T00:13:34.298Z,1.50
2019-03-17T00:14:34.285Z,1.70
2019-03-17T00:15:34.317Z,1.80
2019-03-17T00:16:34.469Z,1.70
2019-03-17T00:17:34.234Z,1.80
2019-03-17T00:18:34.221Z,1.70
2019-03-17T00:19:34.323Z,1.50
2019-03-17T00:20:34.234Z,1.70
2019-03-17T00:21:34.265Z,1.50
2019-03-17T00:22:34.566Z,1.60
2019-03-17T00:23:34.424Z,1.60
2019-03-17T00:24:34.148Z,1.80
2019-03-17T00:25:34.187Z,1.90
2019-03-17T00:26:34.152Z,1.80
2019-03-17T00:27:34.177Z,1.70
2019-03-17T00:28:34.147Z,1.60
2019-03-17T00:29:34.958Z,1.60
2019-03-17T00:30:34.083Z,1.70
2019-03-17T00:31:34.079Z,1.40
2019-03-17T00:32:34.058Z,1.40
2019-03-17T00:33:36.416Z,1.60
2019-03-17T00:34:43.566Z,1.60
2019-03-17T00:35:35.032Z,1.70
2019-03-17T00:36:34.138Z,1.40
2019-03-17T00:37:42.649Z,1.70
2019-03-17T00:38:43.543Z,1.60
2019-03-17T00:39:34.051Z,1.60
2019-03-17T00:40:33.990Z,1.80
2019-03-17T00:41:43.572Z,1.50
2019-03-17T00:42:33.990Z,1.30
2019-03-17T00:43:33.943Z,1.60
2019-03-17T00:44:33.924Z,1.80
2019-03-17T00:45:33.936Z,1.50
2019-03-17T00:46:33.958Z,1.60
2019-03-17T00:47:33.948Z,1.70
2019-03-17T00:48:33.903Z,1.60
2019-03-17T00:49:33.896Z,1.90
2019-03-17T00:50:33.907Z,1.40
2019-03-17T00:51:33.909Z,1.50
2019-03-17T00:52:33.852Z,1.70
2019-03-17T00:53:33.879Z,1.40
2019-03-17T00:54:34.515Z,1.40
2019-03-17T00:55:33.868Z,1.60
2019-03-17T00:56:33.865Z,1.20
2019-03-17T00:57:33.847Z,1.80
2019-03-17T00:58:33.788Z,1.50
2019-03-17T00:59:33.778Z,1.40
2019-03-17T01:00:33.769Z,1.60
2019-03-17T01:01:33.776Z,1.50
2019-03-17T01:02:33.867Z,1.60
2019-03-17T01:03:33.764Z,1.40
2019-03-17T01:04:33.730Z,1.50
2019-03-17T01:05:33.837Z,1.50
2019-03-17T01:06:33.711Z,1.40
2019-03-17T01:07:33.749Z,1.70
2019-03-17T01:08:33.722Z,1.70
2019-03-17T01:09:33.668Z,1.60
2019-03-17T01:10:33.671Z,1.80
2019-03-17T01:11:33.728Z,1.60
2019-03-17T01:12:33.645Z,1.60
2019-03-17T01:13:33.655Z,1.60
2019-03-17T01:14:33.619Z,1.70
2019-03-17T01:15:33.622Z,1.60
2019-03-17T01:16:33.624Z,1.60
2019-03-17T01:17:33.578Z,1.50
2019-03-17T01:18:33.664Z,1.40
2019-03-17T01:19:33.562Z,1.60
2019-03-17T01:20:33.560Z,1.80
2019-03-17T01:21:33.544Z,1.60
2019-03-17T01:22:33.522Z,1.80
2019-03-17T01:23:33.516Z,1.70
2019-03-17T01:24:33.556Z,1.60
2019-03-17T01:25:33.542Z,1.70
2019-03-17T01:26:33.486Z,1.60
2019-03-17T01:27:33.522Z,1.80
2019-03-17T01:28:33.485Z,1.60
2019-03-17T01:29:33.481Z,1.70
2019-03-17T01:30:33.449Z,1.80
2019-03-17T01:31:33.431Z,1.80
2019-03-17T01:32:33.435Z,1.70
2019-03-17T01:33:33.422Z,1.70
2019-03-17T01:34:33.435Z,2.00
2019-03-17T01:35:33.420Z,2.10
2019-03-17T01:36:33.383Z,1.80
2019-03-17T01:37:33.388Z,1.80
2019-03-17T01:38:33.364Z,1.90
2019-03-17T01:39:33.384Z,1.70
2019-03-17T01:40:33.337Z,1.80
2019-03-17T01:41:33.318Z,2.00
2019-03-17T01:42:33.322Z,1.50
2019-03-17T01:43:33.300Z,1.70
2019-03-17T01:44:33.329Z,1.70
2019-03-17T01:45:33.296Z,1.80
2019-03-17T01:46:33.285Z,1.50
2019-03-17T01:47:33.302Z,1.60
2019-03-17T01:48:33.245Z,1.80
2019-03-17T01:49:33.262Z,1.60
2019-03-17T01:50:33.297Z,1.60
2019-03-17T01:51:33.249Z,1.60
2019-03-17T01:52:33.212Z,1.90
2019-03-17T01:53:33.196Z,1.80
2019-03-17T01:54:33.186Z,2.00
2019-03-17T01:55:33.190Z,1.80
2019-03-17T01:56:33.219Z,1.80
2019-03-17T01:57:33.165Z,1.90
2019-03-17T01:58:33.153Z,1.90
2019-03-17T01:59:33.132Z,1.70
2019-03-17T02:00:33.130Z,1.60
2019-03-17T02:01:33.112Z,1.60
2019-03-17T02:02:33.122Z,1.70
2019-03-17T02:03:33.123Z,2.00
2019-03-17T02:04:33.082Z,1.70
2019-03-17T02:05:33.071Z,1.90
2019-03-17T02:06:33.060Z,1.80
2019-03-17T02:07:33.080Z,1.80
2019-03-17T02:08:33.033Z,1.70
2019-03-17T02:09:33.042Z,1.50
2019-03-17T02:10:33.028Z,1.90
2019-03-17T02:11:33.009Z,1.70
2019-03-17T02:12:32.999Z,1.60
2019-03-17T02:13:33.020Z,2.00
2019-03-17T02:14:32.974Z,1.90
2019-03-17T02:15:32.965Z,1.80
2019-03-17T02:16:32.957Z,1.70
2019-03-17T02:17:32.950Z,1.70
2019-03-17T02:18:32.969Z,1.90
2019-03-17T02:19:32.924Z,1.40
2019-03-17T02:20:32.906Z,1.60
2019-03-17T02:21:32.894Z,1.70
2019-03-17T02:22:32.889Z,1.60
2019-03-17T02:23:32.881Z,1.90
2019-03-17T02:24:32.888Z,1.60
2019-03-17T02:25:32.851Z,1.50
2019-03-17T02:26:32.858Z,1.70
2019-03-17T02:27:32.825Z,1.50
2019-03-17T02:28:32.824Z,1.30
2019-03-17T02:29:32.837Z,1.00
2019-03-17T02:30:32.801Z,1.60
2019-03-17T02:31:32.805Z,1.70
2019-03-17T02:32:32.793Z,1.70
2019-03-17T02:33:32.760Z,1.80
2019-03-17T02:34:32.785Z,1.60
2019-03-17T02:35:39.700Z,1.60
2019-03-17T02:36:33.752Z,1.60
2019-03-17T02:37:32.731Z,1.80
2019-03-17T02:38:32.735Z,1.70
2019-03-17T02:39:32.701Z,1.70
2019-03-17T02:40:32.752Z,1.70
2019-03-17T02:41:32.704Z,1.70
2019-03-17T02:42:32.689Z,1.10
2019-03-17T02:43:32.671Z,1.30
2019-03-17T02:44:32.657Z,1.50
2019-03-17T02:45:32.791Z,1.70
2019-03-17T02:46:32.630Z,1.70
2019-03-17T02:47:32.624Z,1.60
2019-03-17T02:48:32.620Z,1.70
2019-03-17T02:49:32.622Z,1.50
2019-03-17T02:50:32.626Z,1.20
2019-03-17T02:51:32.662Z,1.50
2019-03-17T02:52:32.563Z,1.10
2019-03-17T02:53:32.547Z,1.40
2019-03-17T02:54:32.549Z,1.40
2019-03-17T02:55:32.566Z,1.30
2019-03-17T02:56:32.518Z,1.50
2019-03-17T02:57:32.511Z,1.20
2019-03-17T02:58:32.493Z,1.50
2019-03-17T02:59:32.508Z,1.40
2019-03-17T03:00:32.486Z,1.40
2019-03-17T03:01:32.506Z,1.60
2019-03-17T03:02:32.467Z,1.10
2019-03-17T03:03:32.460Z,1.30
2019-03-17T03:04:32.438Z,1.30
2019-03-17T03:05:32.425Z,1.30
2019-03-17T03:06:32.435Z,1.30
2019-03-17T03:07:32.408Z,1.30
2019-03-17T03:08:32.392Z,1.30
2019-03-17T03:09:32.390Z,1.10
2019-03-17T03:10:32.513Z,1.20
2019-03-17T03:11:32.402Z,1.20
2019-03-17T03:12:32.368Z,1.50
2019-03-17T03:13:32.364Z,1.20
2019-03-17T03:14:32.344Z,1.50
2019-03-17T03:15:32.324Z,1.50
2019-03-17T03:16:32.308Z,1.20
2019-03-17T03:17:32.313Z,1.20
2019-03-17T03:18:32.302Z,1.00
2019-03-17T03:19:32.289Z,1.30
2019-03-17T03:20:32.270Z,1.00
2019-03-17T03:21:32.253Z,1.50
2019-03-17T03:22:32.279Z,1.10
2019-03-17T03:23:32.242Z,1.30
2019-03-17T03:24:32.221Z,1.10
2019-03-17T03:25:32.253Z,1.00
2019-03-17T03:26:32.201Z,1.10
2019-03-17T03:27:32.208Z,1.20
2019-03-17T03:28:32.183Z,1.40
2019-03-17T03:29:32.181Z,1.50
2019-03-17T03:30:32.181Z,1.40
2019-03-17T03:31:32.154Z,1.20
2019-03-17T03:32:32.173Z,1.30
2019-03-17T03:33:32.122Z,1.70
2019-03-17T03:34:32.170Z,1.50
2019-03-17T03:35:32.112Z,1.00
2019-03-17T03:36:32.118Z,1.30
2019-03-17T03:37:32.089Z,1.20
2019-03-17T03:38:32.073Z,1.40
2019-03-17T03:39:32.096Z,1.30
2019-03-17T03:40:32.058Z,1.10
2019-03-17T03:41:32.046Z,1.10
2019-03-17T03:42:32.062Z,1.10
2019-03-17T03:43:32.038Z,1.30
2019-03-17T03:44:32.051Z,1.30
2019-03-17T03:45:32.002Z,1.10
2019-03-17T03:46:31.995Z,1.10
2019-03-17T03:47:31.987Z,1.20
2019-03-17T03:48:31.975Z,1.30
2019-03-17T03:49:32.000Z,1.20
2019-03-17T03:50:31.960Z,1.30
2019-03-17T03:51:31.935Z,1.30
2019-03-17T03:52:31.922Z,1.20
2019-03-17T03:53:31.914Z,1.40
2019-03-17T03:54:31.904Z,1.40
2019-03-17T03:55:31.931Z,1.20
2019-03-17T03:56:31.888Z,1.30
2019-03-17T03:57:31.874Z,1.10
2019-03-17T03:58:31.862Z,1.30
2019-03-17T03:59:31.850Z,1.30
2019-03-17T04:00:31.851Z,1.20
2019-03-17T04:01:31.850Z,1.10
2019-03-17T04:02:31.825Z,1.30
2019-03-17T04:03:31.840Z,1.30
2019-03-17T04:04:31.788Z,1.30
2019-03-17T04:05:32.994Z,1.20
2019-03-17T04:06:31.798Z,1.40
2019-03-17T04:07:31.803Z,1.10
2019-03-17T04:08:31.752Z,1.40
2019-03-17T04:09:31.796Z,1.40
2019-03-17T04:10:31.738Z,1.20
2019-03-17T04:11:31.736Z,1.40
2019-03-17T04:12:31.704Z,1.50
2019-03-17T04:13:31.759Z,1.20
2019-03-17T04:14:31.685Z,1.20
2019-03-17T04:15:31.683Z,1.30
2019-03-17T04:16:31.678Z,1.20
2019-03-17T04:17:31.659Z,1.40
2019-03-17T04:18:31.689Z,1.30
2019-03-17T04:19:31.630Z,1.60
2019-03-17T04:20:31.649Z,1.40
2019-03-17T04:21:31.617Z,1.60
2019-03-17T04:22:31.610Z,1.50
2019-03-17T04:23:31.619Z,1.50
2019-03-17T04:24:31.596Z,1.50
2019-03-17T04:25:31.568Z,1.20
2019-03-17T04:26:31.559Z,1.40
2019-03-17T04:27:31.579Z,1.60
2019-03-17T04:28:31.634Z,1.60
2019-03-17T04:29:31.537Z,1.60
2019-03-17T04:30:31.520Z,1.50
2019-03-17T04:31:31.504Z,1.70
2019-03-17T04:32:31.505Z,1.70
2019-03-17T04:33:31.511Z,1.50
2019-03-17T04:34:31.494Z,1.50
2019-03-17T04:35:31.457Z,1.70
2019-03-17T04:36:40.241Z,1.90
2019-03-17T04:37:32.444Z,1.50
2019-03-17T04:38:31.474Z,1.70
2019-03-17T04:39:31.419Z,1.50
2019-03-17T04:40:31.428Z,1.60
2019-03-17T04:41:31.406Z,1.50
2019-03-17T04:42:31.394Z,1.60
2019-03-17T04:43:31.377Z,1.40
2019-03-17T04:44:31.398Z,1.50
2019-03-17T04:45:31.366Z,1.60
2019-03-17T04:46:31.355Z,1.60
2019-03-17T04:47:31.336Z,1.50
2019-03-17T04:48:31.329Z,1.80
2019-03-17T04:49:31.312Z,1.70
2019-03-17T04:50:31.344Z,1.40
2019-03-17T04:51:31.286Z,1.60
2019-03-17T04:52:31.291Z,1.70
2019-03-17T04:53:31.269Z,1.60
2019-03-17T04:54:31.270Z,1.60
2019-03-17T04:55:31.276Z,1.30
2019-03-17T04:56:31.231Z,1.70
2019-03-17T04:57:31.256Z,1.90
2019-03-17T04:58:31.229Z,1.60
2019-03-17T04:59:31.202Z,1.80
2019-03-17T05:00:31.272Z,1.70
2019-03-17T05:01:31.187Z,1.60
2019-03-17T05:02:31.204Z,1.80
2019-03-17T05:03:31.166Z,1.50
2019-03-17T05:04:31.192Z,1.40
2019-03-17T05:05:31.170Z,1.80
2019-03-17T05:06:31.149Z,1.70
2019-03-17T05:07:31.131Z,1.40
2019-03-17T05:08:31.149Z,1.70
2019-03-17T05:09:31.098Z,1.80
2019-03-17T05:10:31.105Z,1.40
2019-03-17T05:11:31.098Z,1.50
2019-03-17T05:12:31.085Z,1.80
2019-03-17T05:13:31.078Z,1.80
2019-03-17T05:14:31.056Z,1.40
2019-03-17T05:15:31.038Z,1.60
2019-03-17T05:16:31.041Z,1.40
2019-03-17T05:17:31.006Z,1.70
2019-03-17T05:18:31.017Z,1.50
2019-03-17T05:19:31.006Z,1.40
2019-03-17T05:20:30.991Z,1.50
2019-03-17T05:21:31.023Z,1.50
2019-03-17T05:22:30.956Z,1.60
2019-03-17T05:23:30.941Z,1.60
2019-03-17T05:24:30.941Z,1.80
2019-03-17T05:25:30.964Z,1.70
2019-03-17T05:26:30.932Z,1.80
2019-03-17T05:27:30.908Z,1.50
2019-03-17T05:28:30.891Z,1.10
2019-03-17T05:29:30.879Z,1.30
2019-03-17T05:30:30.873Z,1.50
2019-03-17T05:31:30.893Z,1.50
2019-03-17T05:32:30.889Z,1.40
2019-03-17T05:33:30.849Z,1.70
2019-03-17T05:34:30.824Z,1.40
2019-03-17T05:35:30.814Z,1.40
2019-03-17T05:36:30.824Z,1.70
2019-03-17T05:37:30.823Z,1.50
2019-03-17T05:38:30.823Z,1.50
2019-03-17T05:39:30.779Z,1.50
2019-03-17T05:40:30.764Z,1.50
2019-03-17T05:41:30.744Z,1.30
2019-03-17T05:42:30.745Z,1.60
2019-03-17T05:43:30.765Z,1.50
2019-03-17T05:44:30.735Z,1.60
2019-03-17T05:45:30.725Z,1.50
2019-03-17T05:46:30.701Z,1.20
2019-03-17T05:47:30.692Z,1.60
2019-03-17T05:48:39.280Z,1.50
2019-03-17T05:49:30.664Z,1.60
2019-03-17T05:50:30.649Z,1.30
2019-03-17T05:51:30.640Z,1.60
2019-03-17T05:52:30.635Z,1.30
2019-03-17T05:53:30.649Z,1.30
2019-03-17T05:54:30.640Z,1.40
2019-03-17T05:55:30.608Z,1.40
2019-03-17T05:56:30.599Z,1.50
2019-03-17T05:57:30.585Z,1.40
2019-03-17T05:58:30.570Z,1.20
2019-03-17T05:59:30.595Z,1.40
2019-03-17T06:00:30.576Z,1.40
2019-03-17T06:01:30.564Z,1.70
2019-03-17T06:02:30.533Z,1.50
2019-03-17T06:03:30.585Z,1.40
2019-03-17T06:04:30.507Z,1.70
2019-03-17T06:05:30.523Z,1.20
2019-03-17T06:06:30.486Z,1.50
2019-03-17T06:07:40.176Z,1.50
2019-03-17T06:08:30.453Z,1.30
2019-03-17T06:09:30.473Z,1.50
2019-03-17T06:10:30.436Z,1.30
2019-03-17T06:11:30.433Z,1.60
2019-03-17T06:12:30.419Z,1.30
2019-03-17T06:13:30.403Z,1.30
2019-03-17T06:14:30.391Z,1.30
2019-03-17T06:15:30.406Z,1.30
2019-03-17T06:16:30.365Z,1.50
2019-03-17T06:17:30.354Z,1.50
2019-03-17T06:18:30.353Z,1.40
2019-03-17T06:19:30.359Z,1.30
2019-03-17T06:20:30.369Z,1.70
2019-03-17T06:21:30.310Z,1.30
2019-03-17T06:22:30.300Z,1.30
2019-03-17T06:23:30.303Z,1.40
2019-03-17T06:24:30.295Z,1.30
2019-03-17T06:25:30.283Z,1.30
2019-03-17T06:26:30.289Z,1.40
2019-03-17T06:27:31.175Z,1.20
2019-03-17T06:28:30.240Z,1.30
2019-03-17T06:29:30.228Z,1.20
2019-03-17T06:30:30.215Z,1.30
2019-03-17T06:31:30.224Z,1.30
2019-03-17T06:32:30.235Z,1.40
2019-03-17T06:33:30.188Z,1.20
2019-03-17T06:34:30.168Z,1.20
2019-03-17T06:35:30.163Z,1.30
2019-03-17T06:36:30.159Z,1.30
2019-03-17T06:37:31.270Z,1.40
2019-03-17T06:38:30.138Z,1.30
2019-03-17T06:39:30.131Z,1.40
2019-03-17T06:40:30.118Z,1.30
2019-03-17T06:41:30.096Z,1.40
2019-03-17T06:42:30.115Z,1.50
2019-03-17T06:43:30.078Z,1.30
2019-03-17T06:44:30.073Z,1.70
2019-03-17T06:45:30.126Z,1.40
2019-03-17T06:46:30.053Z,1.20
2019-03-17T06:47:30.040Z,1.20
2019-03-17T06:48:30.044Z,1.40
2019-03-17T06:49:30.014Z,1.20
2019-03-17T06:50:30.012Z,1.20
2019-03-17T06:51:30.012Z,1.40
2019-03-17T06:52:29.982Z,1.40
2019-03-17T06:53:30.009Z,1.00
2019-03-17T06:54:29.959Z,1.30
2019-03-17T06:55:29.950Z,1.60
2019-03-17T06:56:29.947Z,1.20
2019-03-17T06:57:29.934Z,1.50
2019-03-17T06:58:29.930Z,1.20
2019-03-17T06:59:29.944Z,1.20
2019-03-17T07:00:29.894Z,1.30
2019-03-17T07:01:29.917Z,1.50
2019-03-17T07:02:29.878Z,1.20
2019-03-17T07:03:29.910Z,1.40
2019-03-17T07:04:29.894Z,1.50
2019-03-17T07:05:29.849Z,1.50
2019-03-17T07:06:29.833Z,1.40
2019-03-17T07:07:29.827Z,1.50
2019-03-17T07:08:29.836Z,1.10
2019-03-17T07:09:29.831Z,1.40
2019-03-17T07:10:29.800Z,1.40
2019-03-17T07:11:29.798Z,1.60
2019-03-17T07:12:29.772Z,1.30
2019-03-17T07:13:29.760Z,1.30
2019-03-17T07:14:29.801Z,1.40
2019-03-17T07:15:29.756Z,1.40
2019-03-17T07:16:29.759Z,1.30
2019-03-17T07:17:29.733Z,1.40
2019-03-17T07:18:29.720Z,1.20
2019-03-17T07:19:29.708Z,1.40
2019-03-17T07:20:29.747Z,1.30
2019-03-17T07:21:29.677Z,1.40
2019-03-17T07:22:29.676Z,1.50
2019-03-17T07:23:29.670Z,1.20
2019-03-17T07:24:29.649Z,1.10
2019-03-17T07:25:29.641Z,1.60
2019-03-17T07:26:29.646Z,1.20
2019-03-17T07:27:29.615Z,1.30
2019-03-17T07:28:29.621Z,1.40
2019-03-17T07:29:29.603Z,1.50
2019-03-17T07:30:29.598Z,1.20
2019-03-17T07:31:29.599Z,1.20
2019-03-17T07:32:29.574Z,1.10
2019-03-17T07:33:29.561Z,1.30
2019-03-17T07:34:29.548Z,1.30
2019-03-17T07:35:29.534Z,1.20
2019-03-17T07:36:29.565Z,1.20
2019-03-17T07:37:29.518Z,1.30
2019-03-17T07:38:29.513Z,1.40
2019-03-17T07:39:29.495Z,1.50
2019-03-17T07:40:29.492Z,1.20
2019-03-17T07:41:29.479Z,1.40
2019-03-17T07:42:32.381Z,1.40
2019-03-17T07:43:29.463Z,1.30
2019-03-17T07:44:29.438Z,1.20
2019-03-17T07:45:29.426Z,1.30
2019-03-17T07:46:29.423Z,1.50
2019-03-17T07:47:29.430Z,1.20
2019-03-17T07:48:29.400Z,1.40
2019-03-17T07:49:29.416Z,1.30
2019-03-17T07:50:29.386Z,1.50
2019-03-17T07:51:29.375Z,1.40
2019-03-17T07:52:29.363Z,1.50
2019-03-17T07:53:29.340Z,1.30
2019-03-17T07:54:29.334Z,1.60
2019-03-17T07:55:29.354Z,1.70
2019-03-17T07:56:29.316Z,0.90
2019-03-17T07:57:29.302Z,1.40
2019-03-17T07:58:29.289Z,1.40
2019-03-17T07:59:29.291Z,1.40
2019-03-17T08:00:32.162Z,1.50
2019-03-17T08:01:29.263Z,1.50
2019-03-17T08:02:29.258Z,1.30
2019-03-17T08:03:29.246Z,1.20
2019-03-17T08:04:41.631Z,1.30
2019-03-17T08:05:30.290Z,1.40
2019-03-17T08:06:29.201Z,1.40
2019-03-17T08:07:29.191Z,1.50
2019-03-17T08:08:29.251Z,1.60
2019-03-17T08:09:29.178Z,1.40
2019-03-17T08:10:29.168Z,1.30
2019-03-17T08:11:29.191Z,1.40
2019-03-17T08:12:29.141Z,1.30
2019-03-17T08:13:29.130Z,1.10
2019-03-17T08:14:29.136Z,1.40
2019-03-17T08:15:29.113Z,1.60
2019-03-17T08:16:29.143Z,1.30
2019-03-17T08:17:29.082Z,2.00
2019-03-17T08:18:29.069Z,1.40
2019-03-17T08:19:29.066Z,1.20
2019-03-17T08:20:29.059Z,1.20
2019-03-17T08:21:29.052Z,1.20
2019-03-17T08:22:29.099Z,1.30
2019-03-17T08:23:29.030Z,1.20
2019-03-17T08:24:29.003Z,1.30
2019-03-17T08:25:28.996Z,1.40
2019-03-17T08:26:29.037Z,1.40
2019-03-17T08:27:28.977Z,1.50
2019-03-17T08:28:29.025Z,1.30
2019-03-17T08:29:28.960Z,1.30
2019-03-17T08:30:28.944Z,1.30
2019-03-17T08:31:28.933Z,1.20
2019-03-17T08:32:28.930Z,1.50
2019-03-17T08:33:28.921Z,1.10
2019-03-17T08:34:28.930Z,1.30
2019-03-17T08:35:28.904Z,1.20
2019-03-17T08:36:29.030Z,1.10
2019-03-17T08:37:28.922Z,1.30
2019-03-17T08:38:28.859Z,1.20
2019-03-17T08:39:28.921Z,1.20
2019-03-17T08:40:28.853Z,1.50
2019-03-17T08:41:28.854Z,1.40
2019-03-17T08:42:28.815Z,1.50
2019-03-17T08:43:28.842Z,1.20
2019-03-17T08:44:28.816Z,1.40
2019-03-17T08:45:28.833Z,1.10
2019-03-17T08:46:28.804Z,1.20
2019-03-17T08:47:28.770Z,1.30
2019-03-17T08:48:28.760Z,1.50
2019-03-17T08:49:28.741Z,1.40
2019-03-17T08:50:28.770Z,0.80
2019-03-17T08:51:28.847Z,1.50
2019-03-17T08:52:28.729Z,1.30
2019-03-17T08:53:28.748Z,1.30
2019-03-17T08:54:28.692Z,1.30
2019-03-17T08:55:28.704Z,1.40
2019-03-17T08:56:28.678Z,0.90
2019-03-17T08:57:28.680Z,1.60
2019-03-17T08:58:28.651Z,1.10
2019-03-17T08:59:28.638Z,1.40
2019-03-17T09:00:28.692Z,1.30
2019-03-17T09:01:28.620Z,1.50
2019-03-17T09:02:28.628Z,1.20
2019-03-17T09:03:28.587Z,1.20
2019-03-17T09:04:28.592Z,1.20
2019-03-17T09:05:28.579Z,1.30
2019-03-17T09:06:28.592Z,1.20
2019-03-17T09:07:28.577Z,1.40
2019-03-17T09:08:34.930Z,1.20
2019-03-17T09:09:29.530Z,1.50
2019-03-17T09:10:28.536Z,1.40
2019-03-17T09:11:28.529Z,1.50
2019-03-17T09:12:28.502Z,1.50
2019-03-17T09:13:28.522Z,1.40
2019-03-17T09:14:28.473Z,1.40
2019-03-17T09:15:28.463Z,1.30
2019-03-17T09:16:28.461Z,1.50
2019-03-17T09:17:28.445Z,1.50
2019-03-17T09:18:28.457Z,1.40
2019-03-17T09:19:28.453Z,1.70
2019-03-17T09:20:28.404Z,1.10
2019-03-17T09:21:28.410Z,1.40
2019-03-17T09:22:28.383Z,1.50
2019-03-17T09:23:28.377Z,1.40
2019-03-17T09:24:28.411Z,1.20
2019-03-17T09:25:28.363Z,1.30
2019-03-17T09:26:28.356Z,1.40
2019-03-17T09:27:28.349Z,1.50
2019-03-17T09:28:28.345Z,1.40
2019-03-17T09:29:28.311Z,1.30
2019-03-17T09:30:28.337Z,1.30
2019-03-17T09:31:28.300Z,1.30
2019-03-17T09:32:28.287Z,1.20
2019-03-17T09:33:28.300Z,1.30
2019-03-17T09:34:28.269Z,1.30
2019-03-17T09:35:28.277Z,1.30
2019-03-17T09:36:28.258Z,1.30
2019-03-17T09:37:28.261Z,1.20
2019-03-17T09:38:28.229Z,1.10
2019-03-17T09:39:28.220Z,1.30
2019-03-17T09:40:28.249Z,1.30
2019-03-17T09:41:28.197Z,1.40
2019-03-17T09:42:28.210Z,1.30
2019-03-17T09:43:28.170Z,1.40
2019-03-17T09:44:28.184Z,1.30
2019-03-17T09:45:28.178Z,1.30
2019-03-17T09:46:28.142Z,1.30
2019-03-17T09:47:28.138Z,1.30
2019-03-17T09:48:28.127Z,1.40
2019-03-17T09:49:28.151Z,1.20
2019-03-17T09:50:28.111Z,1.20
2019-03-17T09:51:28.101Z,1.20
2019-03-17T09:52:28.098Z,1.30
2019-03-17T09:53:28.739Z,1.50
2019-03-17T09:54:28.090Z,1.30
2019-03-17T09:55:28.049Z,1.10
2019-03-17T09:56:28.046Z,1.40
2019-03-17T09:57:28.039Z,1.20
2019-03-17T09:58:28.048Z,1.20
2019-03-17T09:59:28.019Z,1.30
2019-03-17T10:00:27.998Z,1.30
2019-03-17T10:01:28.034Z,1.40
2019-03-17T10:02:27.991Z,1.50
2019-03-17T10:03:27.984Z,1.30
2019-03-17T10:04:27.960Z,1.30
2019-03-17T10:05:27.973Z,1.20
2019-03-17T10:06:27.938Z,1.40
2019-03-17T10:07:27.921Z,1.00
2019-03-17T10:08:27.917Z,1.20
2019-03-17T10:09:27.934Z,1.20
2019-03-17T10:10:27.935Z,1.40
2019-03-17T10:11:27.900Z,1.30
2019-03-17T10:12:27.866Z,1.20
2019-03-17T10:13:27.858Z,1.10
2019-03-17T10:14:27.849Z,1.20
2019-03-17T10:15:27.873Z,1.20
2019-03-17T10:16:27.829Z,1.10
2019-03-17T10:17:27.820Z,1.20
2019-03-17T10:18:27.809Z,1.10
2019-03-17T10:19:27.796Z,1.40
2019-03-17T10:20:27.793Z,1.00
2019-03-17T10:21:27.804Z,1.20
2019-03-17T10:22:27.770Z,1.30
2019-03-17T10:23:27.756Z,1.10
2019-03-17T10:24:27.748Z,1.10
2019-03-17T10:25:27.786Z,0.80
2019-03-17T10:26:27.723Z,1.30
2019-03-17T10:27:27.715Z,1.20
2019-03-17T10:28:27.705Z,1.10
2019-03-17T10:29:27.690Z,1.10
2019-03-17T10:30:27.702Z,1.40
2019-03-17T10:31:27.667Z,1.20
2019-03-17T10:32:27.651Z,1.10
2019-03-17T10:33:27.683Z,1.00
2019-03-17T10:34:27.633Z,1.20
2019-03-17T10:35:27.644Z,1.20
2019-03-17T10:36:27.606Z,1.00
2019-03-17T10:37:27.596Z,1.10
2019-03-17T10:38:27.585Z,1.10
2019-03-17T10:39:27.595Z,1.20
2019-03-17T10:40:27.567Z,1.10
2019-03-17T10:41:27.558Z,1.10
2019-03-17T10:42:27.543Z,0.90
2019-03-17T10:43:27.564Z,0.80
2019-03-17T10:44:27.525Z,1.10
2019-03-17T10:45:27.550Z,0.90
2019-03-17T10:46:27.497Z,1.10
2019-03-17T10:47:27.487Z,1.10
2019-03-17T10:48:27.481Z,1.20
2019-03-17T10:49:27.469Z,1.00
2019-03-17T10:50:27.456Z,1.30
2019-03-17T10:51:27.473Z,1.20
2019-03-17T10:52:27.438Z,1.10
2019-03-17T10:53:27.435Z,1.00
2019-03-17T10:54:27.420Z,1.10
2019-03-17T10:55:27.403Z,1.20
2019-03-17T10:56:27.392Z,1.00
2019-03-17T10:57:27.472Z,1.30
2019-03-17T10:58:27.377Z,1.30
2019-03-17T10:59:27.861Z,1.10
2019-03-17T11:00:27.362Z,1.20
2019-03-17T11:01:27.342Z,1.20
2019-03-17T11:02:27.340Z,1.30
2019-03-17T11:03:27.342Z,1.50
2019-03-17T11:04:27.342Z,1.20
2019-03-17T11:05:27.296Z,1.10
2019-03-17T11:06:27.287Z,1.20
2019-03-17T11:07:27.282Z,1.30
2019-03-17T11:08:27.300Z,1.30
2019-03-17T11:09:27.248Z,1.20
2019-03-17T11:10:27.244Z,1.30
2019-03-17T11:11:27.230Z,1.40
2019-03-17T11:12:27.229Z,1.30
2019-03-17T11:13:27.226Z,1.10
2019-03-17T11:14:27.249Z,1.00
2019-03-17T11:15:27.213Z,1.10
2019-03-17T11:16:27.177Z,1.00
2019-03-17T11:17:27.168Z,1.20
2019-03-17T11:18:27.162Z,1.30
2019-03-17T11:19:27.153Z,1.40
2019-03-17T11:20:27.181Z,1.10
2019-03-17T11:21:27.130Z,0.80
2019-03-17T11:22:27.110Z,1.10
2019-03-17T11:23:27.103Z,1.10
2019-03-17T11:24:27.103Z,1.30
2019-03-17T11:25:27.087Z,1.20
2019-03-17T11:26:27.100Z,1.30
2019-03-17T11:27:27.064Z,1.20
2019-03-17T11:28:27.049Z,1.20
2019-03-17T11:29:27.049Z,1.00
2019-03-17T11:30:27.024Z,1.30
2019-03-17T11:31:27.035Z,1.20
2019-03-17T11:32:27.089Z,1.10
2019-03-17T11:33:27.013Z,1.20
2019-03-17T11:34:26.997Z,1.10
2019-03-17T11:35:26.985Z,1.20
2019-03-17T11:36:26.998Z,0.90
2019-03-17T11:37:26.984Z,1.00
2019-03-17T11:38:26.954Z,1.30
2019-03-17T11:39:37.353Z,0.90
2019-03-17T11:40:27.923Z,1.00
2019-03-17T11:41:26.995Z,1.20
2019-03-17T11:42:26.902Z,1.00
2019-03-17T11:43:26.901Z,0.90
2019-03-17T11:44:26.885Z,0.90
2019-03-17T11:45:26.878Z,1.10
2019-03-17T11:46:26.869Z,1.10
2019-03-17T11:47:26.873Z,1.20
2019-03-17T11:48:26.918Z,1.10
2019-03-17T11:49:26.848Z,1.10
2019-03-17T11:50:26.817Z,1.10
2019-03-17T11:51:26.803Z,1.10
2019-03-17T11:52:26.823Z,1.10
2019-03-17T11:53:26.827Z,1.10
2019-03-17T11:54:26.815Z,1.20
2019-03-17T11:55:26.771Z,1.10
2019-03-17T11:56:26.755Z,1.10
2019-03-17T11:57:26.755Z,1.30
2019-03-17T11:58:26.770Z,1.00
2019-03-17T11:59:26.726Z,0.80
2019-03-17T12:00:26.706Z,1.10
2019-03-17T12:01:26.699Z,1.00
2019-03-17T12:02:27.070Z,1.20
2019-03-17T12:03:26.677Z,1.20
2019-03-17T12:04:26.706Z,1.00
2019-03-17T12:05:26.663Z,1.10
2019-03-17T12:06:26.651Z,1.10
2019-03-17T12:07:26.640Z,1.20
2019-03-17T12:08:35.815Z,1.20
2019-03-17T12:09:29.281Z,1.00
2019-03-17T12:10:26.602Z,1.10
2019-03-17T12:11:26.583Z,1.10
2019-03-17T12:12:26.579Z,1.20
2019-03-17T12:13:26.560Z,0.80
2019-03-17T12:14:26.563Z,1.10
2019-03-17T12:15:26.575Z,0.90
2019-03-17T12:16:26.535Z,1.10
2019-03-17T12:17:26.551Z,1.20
2019-03-17T12:18:26.506Z,1.10
2019-03-17T12:19:26.506Z,1.10
2019-03-17T12:20:26.508Z,1.20
2019-03-17T12:21:26.529Z,0.90
2019-03-17T12:22:26.471Z,0.90
2019-03-17T12:23:26.458Z,1.10
2019-03-17T12:24:26.447Z,1.00
2019-03-17T12:25:26.458Z,1.10
2019-03-17T12:26:26.428Z,0.80
2019-03-17T12:27:26.495Z,1.00
2019-03-17T12:28:26.434Z,1.00
2019-03-17T12:29:26.407Z,1.10
2019-03-17T12:30:26.611Z,1.20
2019-03-17T12:31:26.407Z,1.10
2019-03-17T12:32:26.361Z,1.20
2019-03-17T12:33:26.348Z,1.10
2019-03-17T12:34:28.507Z,1.00
2019-03-17T12:35:26.331Z,1.30
2019-03-17T12:36:26.329Z,0.90
2019-03-17T12:37:26.310Z,1.10
2019-03-17T12:38:26.291Z,0.90
2019-03-17T12:39:26.281Z,1.00
2019-03-17T12:40:26.305Z,1.20
2019-03-17T12:41:26.268Z,1.00
2019-03-17T12:42:26.250Z,0.90
2019-03-17T12:43:26.244Z,1.00
2019-03-17T12:44:26.228Z,1.10
2019-03-17T12:45:26.215Z,0.80
2019-03-17T12:46:26.246Z,1.10
2019-03-17T12:47:26.203Z,1.20
2019-03-17T12:48:26.193Z,0.90
2019-03-17T12:49:26.182Z,0.80
2019-03-17T12:50:26.165Z,0.70
2019-03-17T12:51:26.152Z,1.00
2019-03-17T12:52:26.177Z,1.20
2019-03-17T12:53:26.131Z,1.20
2019-03-17T12:54:26.130Z,1.00
2019-03-17T12:55:26.118Z,1.20
2019-03-17T12:56:26.122Z,1.00
2019-03-17T12:57:26.087Z,1.10
2019-03-17T12:58:26.107Z,1.00
2019-03-17T12:59:26.073Z,1.40
2019-03-17T13:00:26.062Z,1.20
2019-03-17T13:01:26.051Z,1.20
2019-03-17T13:02:26.038Z,0.60
2019-03-17T13:03:26.044Z,0.40
2019-03-17T13:04:26.016Z,0.40
2019-03-17T13:05:26.001Z,0.40
2019-03-17T13:06:26.019Z,0.40
2019-03-17T13:07:25.989Z,0.20
2019-03-17T13:08:25.978Z,0.40
2019-03-17T13:09:25.964Z,0.60
2019-03-17T13:10:25.951Z,0.40
2019-03-17T13:11:25.963Z,0.30
2019-03-17T13:12:25.956Z,0.40
2019-03-17T13:13:25.924Z,0.40
2019-03-17T13:14:25.910Z,0.30
2019-03-17T13:15:25.893Z,0.30
2019-03-17T13:16:25.916Z,0.30
2019-03-17T13:17:25.874Z,0.30
2019-03-17T13:18:25.868Z,0.40